Time;durP1;ratioP1;P1;durP2;ratioP2;P2;SDS_P1;SDS_P2;PMS_P1;PMS_P2;Temp;Humidity;BMP_temperature;BMP_pressure;BME280_temperature;BME280_humidity;BME280_pressure;Samples;Min_cycle;Max_cycle;Signal;HPM_P1;HPM_P2
2022/11/20 00:00:34;;;;;;;86.90;78.10;;;;;;;-6.57;83.62;97553.74;105283;1296;23047;-87
2022/11/20 00:03:17;;;;;;;89.00;79.70;;;;;;;-6.68;84.00;97553.68;105549;1308;22153;-86
2022/11/20 00:06:00;;;;;;;88.80;80.00;;;;;;;-6.92;84.09;97552.23;105219;1291;23567;-89
2022/11/20 00:08:36;;;;;;;93.40;83.60;;;;;;;-6.96;84.13;97560.07;105053;1295;23894;31
2022/11/20 00:11:14;;;;;;;90.70;81.90;;;;;;;-6.99;84.09;97558.52;105815;1298;22189;-87
2022/11/20 00:13:51;;;;;;;78.20;70.30;;;;;;;-6.99;84.18;97562.08;106221;1295;22198;31
2022/11/20 00:16:25;;;;;;;79.00;71.30;;;;;;;-6.99;83.80;97558.80;106186;1295;22359;31
2022/11/20 00:18:58;;;;;;;81.70;73.80;;;;;;;-6.93;84.04;97549.61;101026;1294;22681;31
2022/11/20 00:21:28;;;;;;;83.40;74.90;;;;;;;-6.86;83.85;97547.77;105060;1321;22196;-90
2022/11/20 00:24:02;;;;;;;91.90;82.40;;;;;;;-6.95;84.25;97543.06;105255;1299;23009;-88
2022/11/20 00:26:36;;;;;;;96.30;86.60;;;;;;;-7.05;84.36;97534.77;105655;1298;23061;31
2022/11/20 00:29:11;;;;;;;84.60;76.40;;;;;;;-7.06;84.45;97532.94;105807;1294;24031;-83
2022/11/20 00:31:52;;;;;;;85.20;76.70;;;;;;;-7.23;84.05;97525.31;105944;1302;22360;31
2022/11/20 00:34:28;;;;;;;86.50;78.10;;;;;;;-7.37;84.48;97530.35;106093;1293;22083;-89
2022/11/20 00:37:01;;;;;;;81.90;74.20;;;;;;;-7.36;84.54;97529.38;103897;1282;24578;31
2022/11/20 00:39:35;;;;;;;80.40;72.60;;;;;;;-7.28;84.48;97533.93;105155;1299;23844;31
2022/11/20 00:42:15;;;;;;;83.10;75.30;;;;;;;-7.19;84.49;97538.90;106110;1289;22885;31
2022/11/20 00:44:48;;;;;;;84.50;76.20;;;;;;;-7.13;84.18;97533.48;105505;1291;24155;31
2022/11/20 00:47:16;;;;;;;87.40;79.30;;;;;;;-7.15;84.38;97533.20;105189;1298;22370;-84
2022/11/20 00:49:44;;;;;;;87.70;79.20;;;;;;;-7.24;84.34;97533.06;105360;1298;22198;-83
2022/11/20 00:52:14;;;;;;;92.50;83.70;;;;;;;-7.29;84.43;97538.13;104980;1297;22445;-89
2022/11/20 00:54:44;;;;;;;89.40;80.60;;;;;;;-7.39;84.58;97539.52;105532;1297;22026;-85
2022/11/20 00:57:12;;;;;;;83.20;75.10;;;;;;;-7.46;85.10;97534.09;105142;1297;22162;-86
2022/11/20 00:59:46;;;;;;;79.70;71.80;;;;;;;-7.48;84.76;97526.74;105366;1297;22295;31
2022/11/20 01:02:16;;;;;;;84.30;76.10;;;;;;;-7.53;84.89;97524.23;105492;1322;22397;-88
2022/11/20 01:04:44;;;;;;;;;;;;;;;-7.60;85.34;97524.39;105808;1305;22211;-84
2022/11/20 01:07:19;;;;;;;89.40;79.40;;;;;;;-7.65;85.46;97523.42;105368;1295;25211;-88
2022/11/20 01:09:52;;;;;;;87.60;78.40;;;;;;;-7.70;85.88;97518.85;105359;1298;23844;31
2022/11/20 01:12:20;;;;;;;89.30;76.60;;;;;;;-7.76;85.76;97526.16;105116;1320;22971;-86
2022/11/20 01:14:52;;;;;;;81.70;72.80;;;;;;;-7.84;86.24;97519.81;106067;1299;22279;31
2022/11/20 01:17:20;;;;;;;96.10;81.40;;;;;;;-7.87;86.08;97522.70;105144;1320;22058;-90
2022/11/20 01:19:50;;;;;;;148.60;107.00;;;;;;;-7.91;86.04;97519.31;105748;1320;22191;-93
2022/11/20 01:22:18;;;;;;;147.70;109.70;;;;;;;-7.96;86.48;97512.84;105685;1311;22230;-89
2022/11/20 01:24:46;;;;;;;103.10;89.50;;;;;;;-8.01;86.11;97511.67;105190;1325;22047;-89
2022/11/20 01:27:14;;;;;;;93.20;82.90;;;;;;;-8.03;85.82;97504.38;106003;1288;22650;-85
2022/11/20 01:29:41;;;;;;;88.30;77.70;;;;;;;-8.03;85.94;97499.60;105599;1291;24709;-81
2022/11/20 01:32:09;;;;;;;94.00;83.00;;;;;;;-8.05;85.69;97499.30;105770;1294;21993;-79
2022/11/20 01:34:37;;;;;;;110.70;88.20;;;;;;;-8.04;86.14;97497.41;105560;1327;21943;-79
2022/11/20 01:37:05;;;;;;;113.80;93.00;;;;;;;-7.99;85.89;97490.98;105698;1324;22113;-79
2022/11/20 01:39:38;;;;;;;101.50;89.40;;;;;;;-8.00;85.76;97496.04;106103;1301;23545;31
2022/11/20 01:44:59;;;;;;;101.70;81.50;;;;;;;-8.08;85.98;97482.07;103224;1291;24427;-82
2022/11/20 01:47:42;;;;;;;94.90;81.80;;;;;;;-7.94;85.84;97497.52;105665;1291;21915;-83
2022/11/20 01:50:16;;;;;;;88.50;79.30;;;;;;;-7.89;85.91;97495.86;105604;1295;22078;-81
2022/11/20 01:52:51;;;;;;;87.70;78.50;;;;;;;-7.82;85.82;97494.47;105780;1298;22307;-81
2022/11/20 01:55:23;;;;;;;84.20;75.40;;;;;;;-7.71;85.94;97492.99;105585;1293;22253;-81
2022/11/20 01:58:02;;;;;;;85.40;76.20;;;;;;;-7.58;86.03;97491.83;106028;1289;25037;-91
2022/11/20 02:00:30;;;;;;;100.70;84.40;;;;;;;-7.46;86.08;97494.30;105324;1291;21898;-79
2022/11/20 02:03:05;;;;;;;81.40;72.10;;;;;;;-7.43;86.02;97490.48;105162;1318;21928;-85
2022/11/20 02:05:52;;;;;;;83.00;73.90;;;;;;;-7.46;86.49;97490.31;105254;1292;21894;-88
2022/11/20 02:08:21;;;;;;;85.70;76.40;;;;;;;-7.50;86.43;97486.83;105283;1298;22383;-90
2022/11/20 02:10:49;;;;;;;79.80;71.10;;;;;;;-7.51;86.60;97489.93;105177;1327;22165;-85
2022/11/20 02:16:20;;;;;;;83.90;72.70;;;;;;;-7.60;87.11;97497.66;105252;1292;22214;-89
2022/11/20 02:18:50;;;;;;;85.00;75.80;;;;;;;-7.69;87.48;97501.48;105126;1314;22064;-91
2022/11/20 02:21:28;;;;;;;75.70;68.50;;;;;;;-7.72;87.15;97508.16;105544;1311;22102;-88
2022/11/20 02:24:08;;;;;;;76.90;68.90;;;;;;;-7.65;87.30;97502.48;105117;1327;22770;-93
2022/11/20 02:26:56;;;;;;;83.20;74.50;;;;;;;-7.51;87.24;97503.86;105241;1326;22187;-87
2022/11/20 02:29:30;;;;;;;81.50;73.00;;;;;;;-7.44;87.27;97513.44;105182;1325;22131;-90
2022/11/20 02:32:01;;;;;;;83.70;74.90;;;;;;;-7.43;87.02;97515.74;105075;1324;22197;-89
2022/11/20 02:34:29;;;;;;;81.30;72.10;;;;;;;-7.48;87.48;97514.66;105581;1320;22312;-88
2022/11/20 02:36:59;;;;;;;79.10;70.50;;;;;;;-7.54;87.54;97516.28;105727;1301;22019;-88
2022/11/20 02:39:32;;;;;;;77.00;69.20;;;;;;;-7.62;87.66;97517.86;105383;1293;21904;-87
2022/11/20 02:42:05;;;;;;;79.30;70.80;;;;;;;-7.72;87.35;97515.40;98720;1297;23741;31
2022/11/20 02:44:33;;;;;;;80.80;71.90;;;;;;;-7.80;87.55;97517.21;104945;1326;22100;-91
2022/11/20 02:47:01;;;;;;;95.00;77.40;;;;;;;-7.86;87.15;97524.26;105242;1319;22095;-89
2022/11/20 02:49:29;;;;;;;80.10;71.80;;;;;;;-7.81;87.43;97522.80;104991;1326;22212;-91
2022/11/20 02:51:57;;;;;;;83.10;74.20;;;;;;;-7.70;87.45;97518.61;105596;1310;22910;-88
2022/11/20 02:54:33;;;;;;;87.00;71.20;;;;;;;-7.56;87.26;97513.58;105149;1290;22344;-86
2022/11/20 02:57:01;;;;;;;91.20;75.10;;;;;;;-7.46;87.17;97512.62;104935;1323;22250;-86
2022/11/20 02:59:29;;;;;;;94.90;78.20;;;;;;;-7.41;86.75;97516.59;104990;1330;22394;-86
2022/11/20 03:01:57;;;;;;;100.30;77.30;;;;;;;-7.41;87.06;97515.02;104947;1330;22221;-83
2022/11/20 03:04:30;;;;;;;102.30;76.70;;;;;;;-7.46;86.93;97513.94;105951;1291;22018;-87
2022/11/20 03:07:08;;;;;;;122.50;82.50;;;;;;;-7.52;87.20;97508.60;105421;1298;24386;31
2022/11/20 03:09:42;;;;;;;119.70;81.20;;;;;;;-7.60;86.90;97502.92;106284;1298;22380;31
2022/11/20 03:12:17;;;;;;;123.00;82.90;;;;;;;-7.63;86.88;97500.65;105652;1297;22351;31
2022/11/20 03:14:50;;;;;;;96.80;70.80;;;;;;;-7.72;87.00;97502.33;106159;1294;22737;31
2022/11/20 03:17:24;;;;;;;104.10;75.60;;;;;;;-7.79;87.11;97498.78;106431;1296;23184;31
2022/11/20 03:19:52;;;;;;;96.00;78.20;;;;;;;-7.86;87.02;97501.36;105448;1324;22149;-86
2022/11/20 03:22:29;;;;;;;113.20;75.90;;;;;;;-7.92;87.06;97503.61;105438;1289;22103;31
2022/11/20 03:25:04;;;;;;;119.90;82.90;;;;;;;-8.01;87.31;97504.19;105767;1296;22344;31
2022/11/20 03:27:39;;;;;;;128.60;84.40;;;;;;;-8.10;86.88;97502.52;105529;1298;23824;31
2022/11/20 03:30:15;;;;;;;;;;;;;;;-8.13;87.19;97504.86;106366;1297;22479;31
2022/11/20 03:32:47;;;;;;;88.30;75.90;;;;;;;-8.00;88.06;97503.23;106434;1277;22448;31
2022/11/20 03:35:21;;;;;;;103.90;81.30;;;;;;;-7.85;87.40;97504.42;101781;1276;22261;-79
2022/11/20 03:37:53;;;;;;;91.80;79.30;;;;;;;-7.79;87.69;97502.82;106213;1294;22189;31
2022/11/20 03:40:29;;;;;;;81.00;71.90;;;;;;;-7.77;87.55;97499.77;98205;1282;22210;-78
2022/11/20 03:43:03;;;;;;;77.00;69.10;;;;;;;-7.81;87.92;97500.11;106520;1280;22242;31
2022/11/20 03:45:37;;;;;;;;;;;;;;;-7.85;87.85;97499.64;90106;1288;22747;-79
2022/11/20 03:48:09;;;;;;;79.60;71.20;;;;;;;-7.93;87.57;97500.23;100959;1292;22254;31
2022/11/20 03:50:41;;;;;;;78.70;70.60;;;;;;;-7.98;87.57;97498.78;106634;1281;22358;31
2022/11/20 03:53:15;;;;;;;78.90;69.90;;;;;;;-8.01;87.79;97498.23;106070;1286;22618;31
2022/11/20 03:55:51;;;;;;;76.30;68.70;;;;;;;-8.01;88.09;97496.83;100226;1293;23742;31
2022/11/20 03:58:26;;;;;;;73.60;66.00;;;;;;;-8.00;88.58;97498.62;106458;1293;22438;31
2022/11/20 04:01:04;;;;;;;75.50;67.80;;;;;;;-7.95;88.60;97492.66;101287;1283;22163;-79
2022/11/20 04:03:41;;;;;;;72.20;64.90;;;;;;;-7.85;88.58;97491.91;102218;1288;22338;-79
2022/11/20 04:06:37;;;;;;;68.50;61.80;;;;;;;-7.77;88.29;97483.91;104570;1284;22267;-80
2022/11/20 04:09:10;;;;;;;73.20;65.10;;;;;;;-7.69;88.42;97487.26;106356;1295;22317;31
2022/11/20 04:11:44;;;;;;;75.40;67.80;;;;;;;-7.67;88.47;97484.78;106428;1298;22570;31
2022/11/20 04:14:18;;;;;;;71.20;64.20;;;;;;;-7.66;88.90;97481.24;101041;1279;22381;-80
2022/11/20 04:16:54;;;;;;;55.20;49.80;;;;;;;-7.68;88.76;97476.20;101427;1282;22245;-81
2022/11/20 04:19:29;;;;;;;69.00;62.30;;;;;;;-7.69;88.62;97474.83;104330;1287;24429;-92
2022/11/20 04:22:03;;;;;;;71.60;64.00;;;;;;;-7.68;88.55;97474.17;106424;1298;23514;31
2022/11/20 04:24:37;;;;;;;;;;;;;;;-7.67;88.70;97470.61;106479;1288;22516;31
2022/11/20 04:27:11;;;;;;;81.90;73.00;;;;;;;-7.67;88.45;97470.77;107092;1288;22681;31
2022/11/20 04:29:45;;;;;;;94.70;77.60;;;;;;;-7.63;88.71;97463.35;106938;1286;22631;31
2022/11/20 04:32:17;;;;;;;86.40;73.00;;;;;;;-7.59;88.71;97457.13;106525;1293;23065;31
2022/11/20 04:34:49;;;;;;;80.20;70.70;;;;;;;-7.56;88.64;97453.92;106834;1295;22324;31
2022/11/20 04:37:24;;;;;;;114.50;73.90;;;;;;;-7.54;88.75;97454.33;107156;1287;22381;31
2022/11/20 04:39:59;;;;;;;108.70;72.80;;;;;;;-7.64;88.22;97434.00;106408;1285;24508;31
2022/11/20 04:42:32;;;;;;;;;;;;;;;-7.52;88.46;97448.58;106907;1283;22567;31
2022/11/20 04:45:08;;;;;;;149.50;83.60;;;;;;;-7.55;88.33;97448.54;106089;1297;22305;31
2022/11/20 04:47:41;;;;;;;94.30;71.30;;;;;;;-7.57;88.32;97448.40;106309;1297;23198;31
2022/11/20 04:50:16;;;;;;;100.20;75.30;;;;;;;-7.50;88.60;97449.11;106952;1278;22804;31
2022/11/20 04:52:49;;;;;;;;;;;;;;;-7.41;88.35;97451.30;106581;1298;22465;31
2022/11/20 04:55:27;;;;;;;105.30;73.80;;;;;;;-7.39;88.01;97451.73;100707;1282;22294;-79
2022/11/20 04:58:00;;;;;;;88.30;74.30;;;;;;;-7.38;88.15;97450.41;106936;1284;22674;31
2022/11/20 05:00:34;;;;;;;91.50;76.40;;;;;;;-7.36;88.40;97446.44;106405;1298;21667;31
2022/11/20 05:03:09;;;;;;;99.50;79.00;;;;;;;-7.36;88.00;97445.23;106815;1283;22791;31
2022/11/20 05:05:41;;;;;;;;;;;;;;;-7.40;87.94;97439.98;106576;1294;24561;31
2022/11/20 05:08:15;;;;;;;123.70;85.90;;;;;;;-7.59;87.45;97438.61;106585;1281;22366;31
2022/11/20 05:10:48;;;;;;;;;;;;;;;-7.69;87.79;97436.27;106925;1281;22886;31
2022/11/20 05:13:23;;;;;;;150.70;96.10;;;;;;;-7.77;87.83;97432.36;106716;1291;22339;31
2022/11/20 05:16:08;;;;;;;143.70;91.80;;;;;;;-7.88;87.57;97428.96;106962;1283;22378;31
2022/11/20 05:18:43;;;;;;;102.00;82.30;;;;;;;-7.90;87.93;97435.36;103591;1283;23462;-81
2022/11/20 05:21:17;;;;;;;110.10;81.50;;;;;;;-7.86;87.60;97436.46;107037;1287;23894;31
2022/11/20 05:23:52;;;;;;;96.10;77.30;;;;;;;-7.84;87.24;97439.64;106092;1298;22667;31
2022/11/20 05:26:24;;;;;;;;;;;;;;;-7.82;87.10;97440.80;106541;1296;22413;31
2022/11/20 05:29:00;;;;;;;81.50;72.20;;;;;;;-7.80;87.19;97445.98;107226;1287;22326;31
2022/11/20 05:31:33;;;;;;;75.60;67.80;;;;;;;-7.75;87.39;97435.20;106520;1284;23799;31
2022/11/20 05:34:08;;;;;;;80.10;71.70;;;;;;;-7.71;87.38;97430.71;107178;1288;22235;31
2022/11/20 05:36:43;;;;;;;76.70;68.40;;;;;;;-7.72;87.35;97428.09;106839;1275;22328;31
2022/11/20 05:39:16;;;;;;;63.30;57.60;;;;;;;-7.78;87.28;97422.74;106716;1291;23536;31
2022/11/20 05:45:00;;;;;;;60.30;54.60;;;;;;;-7.93;87.45;97414.46;107195;1279;22331;31
2022/11/20 05:47:36;;;;;;;53.60;48.50;;;;;;;-7.92;87.67;97418.36;99937;1284;22201;-80
2022/11/20 05:50:14;;;;;;;60.50;54.70;;;;;;;-7.91;87.48;97423.15;106641;1282;24495;31
2022/11/20 05:52:50;;;;;;;79.60;71.60;;;;;;;-7.91;87.57;97418.02;106962;1288;22377;31
2022/11/20 05:55:26;;;;;;;70.30;63.60;;;;;;;-7.88;87.32;97415.54;107000;1291;22306;31
2022/11/20 05:58:00;;;;;;;71.50;64.10;;;;;;;-7.83;87.38;97412.34;106944;1288;22362;31
2022/11/20 06:00:36;;;;;;;71.10;64.10;;;;;;;-7.80;87.23;97416.78;106740;1286;25299;31
2022/11/20 06:03:11;;;;;;;66.70;60.20;;;;;;;-7.77;87.21;97416.14;106681;1292;22262;-89
2022/11/20 06:05:45;;;;;;;81.90;73.10;;;;;;;-7.77;87.73;97402.91;107220;1288;22625;31
2022/11/20 06:08:17;;;;;;;96.40;78.30;;;;;;;-7.60;87.66;97422.87;106595;1292;24565;31
2022/11/20 06:10:50;;;;;;;81.80;73.00;;;;;;;-7.57;87.47;97428.11;106893;1291;22719;31
2022/11/20 06:13:25;;;;;;;73.10;66.00;;;;;;;-7.62;87.65;97433.23;107234;1281;22316;31
2022/11/20 06:16:02;;;;;;;78.20;70.30;;;;;;;-7.73;87.18;97435.36;106283;1294;22731;31
2022/11/20 06:18:34;;;;;;;86.20;74.90;;;;;;;-7.79;87.32;97432.32;106104;1300;23626;31
2022/11/20 06:21:15;;;;;;;102.10;79.50;;;;;;;-7.77;87.53;97431.42;106441;1295;21964;-82
2022/11/20 06:23:50;;;;;;;90.50;79.50;;;;;;;-7.74;87.42;97431.98;104036;1291;25308;-82
2022/11/20 06:26:25;;;;;;;118.70;90.70;;;;;;;-7.67;87.65;97427.92;106174;1295;22622;31
2022/11/20 06:29:01;;;;;;;89.80;80.00;;;;;;;-7.55;88.01;97424.13;98748;1283;22768;31
2022/11/20 06:31:37;;;;;;;92.80;82.70;;;;;;;-7.50;87.31;97427.86;106499;1294;22307;31
2022/11/20 06:34:11;;;;;;;93.50;81.50;;;;;;;-7.60;87.08;97429.30;106868;1292;22319;31
2022/11/20 06:36:44;;;;;;;87.80;78.70;;;;;;;-7.67;87.01;97425.89;106863;1291;22212;31
2022/11/20 06:39:19;;;;;;;89.90;80.00;;;;;;;-7.70;87.29;97427.27;107159;1288;22296;31
2022/11/20 06:41:53;;;;;;;78.00;70.40;;;;;;;-7.66;87.23;97425.06;106923;1286;22575;31
2022/11/20 06:44:35;;;;;;;70.90;63.90;;;;;;;-7.65;87.49;97421.95;106327;1299;23435;31
2022/11/20 06:47:09;;;;;;;73.20;66.10;;;;;;;-7.63;87.53;97421.16;106399;1286;23076;31
2022/11/20 06:49:43;;;;;;;80.70;72.60;;;;;;;-7.55;87.52;97422.97;105515;1284;22116;-84
2022/11/20 06:52:17;;;;;;;86.90;78.30;;;;;;;-7.54;87.76;97411.42;106043;1290;22224;31
2022/11/20 06:54:49;;;;;;;84.30;76.40;;;;;;;-7.27;88.11;97419.56;107130;1288;22345;31
2022/11/20 06:57:25;;;;;;;79.10;71.20;;;;;;;-7.10;88.17;97413.77;106527;1297;23625;31
2022/11/20 06:59:59;;;;;;;70.80;64.20;;;;;;;-6.97;87.89;97411.66;106667;1289;24868;31
2022/11/20 07:02:33;;;;;;;;;;;;;;;-6.97;87.67;97415.41;106361;1297;22560;31
2022/11/20 07:05:06;;;;;;;67.70;61.20;;;;;;;-6.99;87.76;97417.63;105069;1271;22339;31
2022/11/20 07:07:40;;;;;;;69.70;63.00;;;;;;;-6.96;87.59;97414.84;105840;1298;23128;-81
2022/11/20 07:10:16;;;;;;;149.10;97.20;;;;;;;-6.86;87.95;97414.39;105985;1283;22654;31
2022/11/20 07:12:52;;;;;;;170.20;106.60;;;;;;;-6.70;88.41;97404.23;106380;1297;22463;31
2022/11/20 07:15:25;;;;;;;188.70;118.30;;;;;;;-6.51;89.06;97402.95;106416;1286;22360;31
2022/11/20 07:18:01;;;;;;;212.80;129.80;;;;;;;-6.28;89.29;97405.81;106608;1285;24025;31
2022/11/20 07:20:37;;;;;;;202.40;126.30;;;;;;;-6.08;89.34;97409.05;99587;1282;5004911;31
2022/11/20 07:23:11;;;;;;;179.70;115.50;;;;;;;-5.91;89.39;97406.02;106500;1298;24278;31
2022/11/20 07:25:45;;;;;;;;;;;;;;;-5.76;89.33;97404.30;106690;1295;22461;31
2022/11/20 07:28:19;;;;;;;131.70;93.60;;;;;;;-5.62;89.62;97407.98;106808;1294;22516;31
2022/11/20 07:30:52;;;;;;;111.80;91.50;;;;;;;-5.49;89.52;97408.05;106785;1291;22396;31
2022/11/20 07:33:27;;;;;;;124.30;95.70;;;;;;;-5.35;89.51;97411.79;106322;1286;23398;-86
2022/11/20 07:36:01;;;;;;;134.00;97.50;;;;;;;-5.20;89.71;97408.52;106435;1293;23461;31
2022/11/20 07:38:37;;;;;;;158.10;104.00;;;;;;;-5.12;89.12;97408.07;106351;1298;23990;31
2022/11/20 07:41:12;;;;;;;145.60;99.50;;;;;;;-5.11;89.00;97395.39;103709;1295;22354;31
2022/11/20 07:43:45;;;;;;;;;;;;;;;-4.90;88.74;97406.61;105871;1291;22487;31
2022/11/20 07:46:23;;;;;;;190.90;126.40;;;;;;;-4.81;88.70;97407.08;106122;1294;23388;31
2022/11/20 07:48:56;;;;;;;217.30;144.50;;;;;;;-4.74;88.71;97406.91;100854;1290;22598;-84
2022/11/20 07:51:29;;;;;;;199.90;140.80;;;;;;;-4.68;88.70;97411.32;106124;1288;22343;31
2022/11/20 07:54:03;;;;;;;213.80;152.80;;;;;;;-4.64;88.83;97414.73;105702;1298;23073;31
2022/11/20 07:56:36;;;;;;;230.30;166.60;;;;;;;-4.59;88.70;97414.04;106333;1298;21759;-86
2022/11/20 07:59:11;;;;;;;201.20;140.10;;;;;;;-4.52;88.86;97413.18;106045;1293;22231;31
2022/11/20 08:01:44;;;;;;;232.00;152.60;;;;;;;-4.40;89.10;97418.07;105282;1300;22024;-83
2022/11/20 08:04:19;;;;;;;221.20;150.10;;;;;;;-4.25;88.97;97419.35;98609;1292;22106;31
2022/11/20 08:06:53;;;;;;;224.30;153.00;;;;;;;-4.13;88.90;97419.13;105693;1298;22265;31
2022/11/20 08:09:30;;;;;;;251.00;168.10;;;;;;;-4.02;89.04;97422.64;105976;1292;23851;31
2022/11/20 08:15:00;;;;;;;229.30;161.30;;;;;;;-3.74;89.59;97420.90;106874;1287;24923;-87
2022/11/20 08:17:35;;;;;;;222.70;157.50;;;;;;;-3.69;89.48;97405.61;106153;1298;22387;31
2022/11/20 08:20:03;;;;;;;208.00;140.60;;;;;;;-3.47;89.55;97421.32;105838;1295;22095;-90
2022/11/20 08:22:37;;;;;;;193.40;131.50;;;;;;;-3.32;89.56;97423.48;106069;1294;22380;31
2022/11/20 08:25:09;;;;;;;180.80;127.90;;;;;;;-3.21;89.54;97405.65;105978;1282;22359;31
2022/11/20 08:27:42;;;;;;;185.50;131.60;;;;;;;-2.92;89.42;97419.79;106848;1288;22369;31
2022/11/20 08:30:16;;;;;;;171.50;126.60;;;;;;;-2.76;89.49;97417.62;106424;1295;22245;31
2022/11/20 08:32:49;;;;;;;162.60;122.10;;;;;;;-2.62;89.46;97413.96;106783;1288;24419;31
2022/11/20 08:35:26;;;;;;;157.40;110.00;;;;;;;-2.49;89.62;97415.95;106331;1301;22355;31
2022/11/20 08:38:05;;;;;;;121.00;97.90;;;;;;;-2.40;89.38;97414.71;101308;1282;22142;-79
2022/11/20 08:40:38;;;;;;;101.70;91.20;;;;;;;-2.35;89.42;97408.95;106853;1291;22252;31
2022/11/20 08:43:12;;;;;;;97.80;87.50;;;;;;;-2.27;89.38;97414.39;106988;1289;23623;31
2022/11/20 08:45:46;;;;;;;91.90;83.00;;;;;;;-2.16;89.57;97413.64;106241;1296;22061;-84
2022/11/20 08:48:20;;;;;;;90.50;82.20;;;;;;;-2.02;89.41;97410.52;106176;1298;22448;31
2022/11/20 08:50:53;;;;;;;85.90;78.10;;;;;;;-1.88;89.67;97409.26;106249;1295;23646;31
2022/11/20 08:53:28;;;;;;;82.90;75.10;;;;;;;-1.77;89.43;97412.08;105749;1296;22044;31
2022/11/20 08:56:02;;;;;;;82.30;74.40;;;;;;;-1.71;89.44;97414.16;106280;1295;22805;31
2022/11/20 08:58:37;;;;;;;82.10;74.40;;;;;;;-1.67;89.31;97410.71;106153;1296;23836;-80
2022/11/20 09:01:33;;;;;;;75.30;68.10;;;;;;;-1.67;89.12;97411.39;106465;1298;22219;31
2022/11/20 09:04:08;;;;;;;81.50;73.90;;;;;;;-1.69;88.92;97413.41;102323;1292;22376;-79
2022/11/20 09:06:43;;;;;;;138.10;101.10;;;;;;;-1.65;88.91;97415.30;106350;1296;22404;-84
2022/11/20 09:09:18;;;;;;;78.20;71.10;;;;;;;-1.55;88.87;97416.25;104459;1268;22311;31
2022/11/20 09:11:52;;;;;;;70.80;64.20;;;;;;;-1.48;89.02;97411.64;105536;1297;22343;-90
2022/11/20 09:14:28;;;;;;;73.70;66.80;;;;;;;-1.41;89.13;97407.19;106112;1296;22369;-88
2022/11/20 09:17:07;;;;;;;70.90;64.30;;;;;;;-1.34;89.28;97403.17;105863;1297;22357;-88
2022/11/20 09:19:41;;;;;;;64.60;58.70;;;;;;;-1.27;89.25;97402.00;105756;1297;22321;31
2022/11/20 09:22:09;;;;;;;;;;;;;;;-1.26;88.90;97405.73;105348;1291;22755;-94
2022/11/20 09:24:37;;;;;;;64.10;58.10;;;;;;;-1.27;89.00;97411.41;105682;1298;22364;-86
2022/11/20 09:27:11;;;;;;;65.90;59.80;;;;;;;-1.27;88.81;97409.52;105852;1301;22329;31
2022/11/20 09:29:39;;;;;;;65.60;59.50;;;;;;;-1.23;88.88;97412.86;105274;1296;22150;-88
2022/11/20 09:32:07;;;;;;;64.80;58.90;;;;;;;-1.14;88.78;97411.95;105176;1326;22943;-92
2022/11/20 09:34:35;;;;;;;66.20;60.10;;;;;;;-1.04;88.89;97411.70;105378;1317;21921;-90
2022/11/20 09:37:03;;;;;;;68.20;62.20;;;;;;;-0.97;88.73;97414.05;105264;1318;22384;-93
2022/11/20 09:39:38;;;;;;;69.30;62.80;;;;;;;-0.95;88.51;97409.54;105174;1321;22223;-87
2022/11/20 09:42:32;;;;;;;71.40;65.00;;;;;;;-0.96;88.55;97413.55;105102;1321;22224;-95
2022/11/20 09:45:35;;;;;;;69.40;63.20;;;;;;;-1.00;88.50;97414.41;105082;1325;22282;-91
2022/11/20 09:48:44;;;;;;;73.40;66.70;;;;;;;-1.02;88.69;97414.86;105051;1326;22217;-94
2022/11/20 09:51:33;;;;;;;66.40;60.10;;;;;;;-1.02;88.50;97412.84;104728;1333;22900;-90
2022/11/20 09:54:10;;;;;;;67.90;61.40;;;;;;;-1.04;88.45;97417.56;104709;1332;22265;-93
2022/11/20 09:56:43;;;;;;;105.40;64.60;;;;;;;-1.04;88.36;97417.61;104730;1333;22188;-94
2022/11/20 09:59:26;;;;;;;71.40;63.80;;;;;;;-0.97;88.33;97412.68;104852;1314;22223;-91
2022/11/20 10:01:55;;;;;;;68.00;61.70;;;;;;;-0.87;88.43;97411.36;104759;1326;22936;-93
2022/11/20 10:04:24;;;;;;;72.60;65.20;;;;;;;-0.78;88.52;97409.05;104712;1333;22964;-94
2022/11/20 10:07:16;;;;;;;68.40;62.00;;;;;;;-0.69;88.62;97410.10;104463;1328;22145;-91
2022/11/20 10:09:59;;;;;;;60.30;54.80;;;;;;;-0.61;88.43;97407.59;104953;1303;22388;-93
2022/11/20 10:12:39;;;;;;;61.10;55.80;;;;;;;-0.58;88.24;97409.77;104780;1311;22238;-91
2022/11/20 10:15:33;;;;;;;64.30;58.50;;;;;;;-0.54;87.90;97402.41;104590;1333;22204;-92
2022/11/20 10:18:38;;;;;;;60.00;54.30;;;;;;;-0.54;87.24;97395.08;104731;1311;22925;-93
2022/11/20 10:21:27;;;;;;;55.00;49.90;;;;;;;-0.53;87.00;97395.73;104549;1333;22292;-92
2022/11/20 10:24:09;;;;;;;62.60;57.00;;;;;;;-0.43;87.61;97392.96;104839;1326;22242;-93
2022/11/20 10:26:53;;;;;;;67.90;61.90;;;;;;;-0.35;87.32;97385.38;105050;1327;22749;-90
2022/11/20 10:29:33;;;;;;;69.60;63.10;;;;;;;-0.33;87.16;97380.77;105694;1312;22073;-89
2022/11/20 10:32:07;;;;;;;73.00;66.20;;;;;;;-0.28;87.42;97377.01;105222;1319;22234;-92
2022/11/20 10:34:48;;;;;;;65.30;59.50;;;;;;;-0.23;87.71;97376.02;105135;1321;21755;-88
2022/11/20 10:37:22;;;;;;;64.80;58.80;;;;;;;-0.17;87.51;97371.29;105785;1298;21945;-88
2022/11/20 10:39:50;;;;;;;68.00;61.80;;;;;;;-0.16;86.71;97368.06;105302;1319;22139;-88
2022/11/20 10:42:42;;;;;;;69.00;62.50;;;;;;;-0.16;86.40;97366.21;105231;1327;22220;-91
2022/11/20 10:45:26;;;;;;;68.00;61.30;;;;;;;-0.19;85.92;97366.44;105102;1327;22218;-90
2022/11/20 10:48:07;;;;;;;64.60;58.50;;;;;;;-0.16;85.80;97365.69;105223;1327;22279;-89
2022/11/20 10:50:42;;;;;;;69.60;63.00;;;;;;;-0.10;86.05;97354.98;105206;1290;22173;-89
2022/11/20 10:53:49;;;;;;;75.10;68.20;;;;;;;-0.03;86.24;97351.06;105582;1297;22114;-91
2022/11/20 10:56:45;;;;;;;73.80;66.80;;;;;;;-0.02;86.01;97346.73;105063;1298;23052;-93
2022/11/20 10:59:23;;;;;;;65.20;59.30;;;;;;;-0.02;86.20;97344.98;105445;1320;22179;-92
2022/11/20 11:01:51;;;;;;;60.40;54.90;;;;;;;-0.05;85.78;97341.32;105442;1311;22207;-91
2022/11/20 11:04:43;;;;;;;57.00;51.70;;;;;;;-0.10;85.25;97339.98;104826;1327;22126;-92
2022/11/20 11:07:20;;;;;;;60.50;55.10;;;;;;;-0.15;85.25;97335.52;105024;1327;22130;-89
2022/11/20 11:09:52;;;;;;;66.70;60.60;;;;;;;-0.16;85.48;97337.83;105163;1320;22188;-91
2022/11/20 11:12:22;;;;;;;66.50;60.50;;;;;;;-0.16;85.64;97334.55;104881;1330;22164;-91
2022/11/20 11:14:55;;;;;;;63.70;57.80;;;;;;;-0.15;84.77;97335.63;104886;1329;22234;-91
2022/11/20 11:17:32;;;;;;;56.80;51.70;;;;;;;-0.14;84.82;97330.61;105122;1311;22127;-90
2022/11/20 11:20:03;;;;;;;58.80;53.50;;;;;;;-0.09;85.19;97334.39;104907;1324;22954;-90
2022/11/20 11:22:34;;;;;;;58.70;53.20;;;;;;;-0.02;85.12;97334.16;105368;1307;22225;-91
2022/11/20 11:25:02;;;;;;;57.30;52.00;;;;;;;0.02;84.96;97333.53;104999;1328;22141;-91
2022/11/20 11:27:34;;;;;;;60.50;55.00;;;;;;;0.08;85.07;97329.21;104887;1330;22131;-92
2022/11/20 11:30:13;;;;;;;72.50;65.60;;;;;;;0.14;85.11;97324.04;104880;1332;22269;-91
2022/11/20 11:32:42;;;;;;;63.90;58.30;;;;;;;0.20;84.90;97326.92;104915;1333;22206;-92
2022/11/20 11:35:26;;;;;;;91.50;77.60;;;;;;;0.21;85.05;97328.48;104758;1333;22247;-90
2022/11/20 11:38:07;;;;;;;92.80;79.80;;;;;;;0.24;84.21;97322.90;105064;1300;22237;-91
2022/11/20 11:40:37;;;;;;;78.40;70.30;;;;;;;0.19;83.50;97326.34;104891;1327;22237;-91
2022/11/20 11:46:33;;;;;;;68.40;61.70;;;;;;;0.02;83.20;97319.91;105168;1320;22185;-91
2022/11/20 11:49:11;;;;;;;63.00;57.00;;;;;;;-0.01;83.17;97324.95;105455;1312;22098;-87
2022/11/20 11:51:59;;;;;;;67.20;60.50;;;;;;;-0.08;83.00;97329.75;105470;1319;22083;-92
2022/11/20 11:54:41;;;;;;;66.70;60.50;;;;;;;-0.14;83.40;97329.29;105041;1326;22062;-91
2022/11/20 11:57:29;;;;;;;66.60;60.50;;;;;;;-0.13;83.24;97331.64;105444;1317;22156;-87
2022/11/20 12:00:14;;;;;;;65.90;59.70;;;;;;;-0.15;82.79;97327.15;104799;1327;22287;-90
2022/11/20 12:02:45;;;;;;;69.20;62.90;;;;;;;-0.19;82.55;97320.27;104836;1327;22223;-91
2022/11/20 12:05:26;;;;;;;72.50;65.60;;;;;;;-0.22;83.05;97323.13;104922;1326;22145;-88